createdAt,value
2022-11-30T00:00:11.573Z,20.70
2022-11-30T00:02:39.751Z,21.07
2022-11-30T00:05:08.803Z,22.70
2022-11-30T00:07:37.202Z,20.23
2022-11-30T00:10:06.664Z,22.50
2022-11-30T00:12:35.152Z,22.20
2022-11-30T00:15:05.710Z,21.97
2022-11-30T00:17:34.031Z,23.03
2022-11-30T00:20:02.443Z,24.47
2022-11-30T00:22:30.692Z,20.93
2022-11-30T00:25:00.262Z,22.80
2022-11-30T00:27:29.161Z,25.13
2022-11-30T00:29:57.441Z,23.70
2022-11-30T00:32:27.402Z,24.53
2022-11-30T00:34:55.842Z,24.57
2022-11-30T00:37:24.166Z,23.30
2022-11-30T00:39:52.352Z,23.90
2022-11-30T00:42:20.523Z,24.70
2022-11-30T00:44:48.891Z,27.27
2022-11-30T00:47:17.160Z,27.80
2022-11-30T00:49:46.759Z,27.10
2022-11-30T00:52:15.003Z,26.20
2022-11-30T00:54:43.207Z,26.67
2022-11-30T00:57:11.584Z,25.93
2022-11-30T00:59:39.812Z,25.07
2022-11-30T01:02:08.054Z,24.60
2022-11-30T01:04:36.340Z,27.43
2022-11-30T01:07:06.044Z,26.50
2022-11-30T01:09:34.280Z,27.20
2022-11-30T01:12:02.411Z,28.70
2022-11-30T01:14:30.620Z,27.97
2022-11-30T01:16:58.816Z,29.33
2022-11-30T01:19:27.049Z,29.07
2022-11-30T01:21:55.290Z,30.30
2022-11-30T01:24:24.836Z,31.30
2022-11-30T01:26:53.307Z,29.03
2022-11-30T01:29:21.446Z,30.03
2022-11-30T01:31:49.691Z,29.33
2022-11-30T01:34:17.920Z,31.00
2022-11-30T01:36:46.328Z,28.20
2022-11-30T01:39:14.468Z,30.80
2022-11-30T01:41:44.016Z,27.63
2022-11-30T01:44:49.781Z,29.93
2022-11-30T01:47:20.881Z,30.70
2022-11-30T01:49:53.490Z,28.50
2022-11-30T01:52:24.348Z,26.57
2022-11-30T01:54:56.175Z,28.43
2022-11-30T01:57:31.095Z,29.20
2022-11-30T02:00:02.308Z,28.23
2022-11-30T02:02:39.054Z,26.07
2022-11-30T02:05:08.221Z,26.13
2022-11-30T02:07:36.691Z,28.80
2022-11-30T02:10:05.555Z,28.87
2022-11-30T02:12:45.961Z,28.70
2022-11-30T02:15:22.333Z,30.37
2022-11-30T02:17:59.090Z,25.67
2022-11-30T02:20:42.579Z,28.77
2022-11-30T02:23:35.344Z,26.40
2022-11-30T02:26:18.566Z,28.30
2022-11-30T02:29:07.072Z,28.10
2022-11-30T02:31:42.842Z,27.30
2022-11-30T02:34:15.063Z,28.93
2022-11-30T02:36:47.367Z,27.40
2022-11-30T02:39:16.937Z,28.10
2022-11-30T02:41:45.119Z,28.67
2022-11-30T02:44:15.659Z,28.47
2022-11-30T02:46:58.502Z,27.70
2022-11-30T02:49:33.562Z,26.43
2022-11-30T02:52:03.619Z,29.83
2022-11-30T02:54:31.852Z,27.23
2022-11-30T02:57:00.192Z,27.67
2022-11-30T02:59:30.185Z,27.50
2022-11-30T03:01:58.599Z,26.40
2022-11-30T03:04:26.857Z,25.87
2022-11-30T03:06:55.059Z,25.83
2022-11-30T03:09:23.219Z,26.13
2022-11-30T03:11:51.429Z,25.70
2022-11-30T03:14:19.620Z,25.70
2022-11-30T03:16:49.158Z,25.67
2022-11-30T03:19:17.370Z,24.17
2022-11-30T03:21:46.594Z,26.60
2022-11-30T03:24:15.769Z,26.00
2022-11-30T03:26:44.011Z,24.83
2022-11-30T03:29:12.427Z,24.37
2022-11-30T03:31:40.670Z,25.17
2022-11-30T03:34:10.284Z,23.93
2022-11-30T03:36:38.515Z,25.10
2022-11-30T03:39:07.003Z,23.57
2022-11-30T03:41:36.251Z,23.43
2022-11-30T03:44:04.398Z,22.07
2022-11-30T03:46:34.090Z,22.70
2022-11-30T03:49:02.728Z,23.60
2022-11-30T03:51:32.801Z,24.20
2022-11-30T03:54:01.366Z,23.60
2022-11-30T03:56:30.253Z,25.17
2022-11-30T03:58:58.596Z,24.13
2022-11-30T04:01:28.010Z,24.80
2022-11-30T04:03:56.306Z,26.30
2022-11-30T04:06:24.657Z,26.27
2022-11-30T04:08:54.509Z,24.80
2022-11-30T04:11:22.803Z,24.17
2022-11-30T04:13:50.946Z,27.20
2022-11-30T04:16:19.189Z,29.67
2022-11-30T04:18:48.582Z,30.63
2022-11-30T04:21:16.820Z,29.30
2022-11-30T04:23:44.972Z,27.70
2022-11-30T04:26:16.458Z,30.50
2022-11-30T04:28:45.149Z,29.30
2022-11-30T04:31:14.002Z,30.13
2022-11-30T04:33:42.212Z,31.87
2022-11-30T04:36:18.829Z,32.07
2022-11-30T04:38:47.417Z,31.50
2022-11-30T04:41:17.534Z,29.33
2022-11-30T04:43:45.772Z,32.90
2022-11-30T04:46:14.019Z,31.07
2022-11-30T04:48:42.231Z,31.43
2022-11-30T04:51:10.547Z,31.70
2022-11-30T04:53:39.583Z,32.60
2022-11-30T04:56:08.791Z,29.77
2022-11-30T04:58:39.154Z,32.50
2022-11-30T05:01:07.562Z,32.77
2022-11-30T05:03:36.084Z,29.30
2022-11-30T05:06:04.899Z,30.93
2022-11-30T05:08:33.123Z,30.50
2022-11-30T05:11:01.309Z,30.40
2022-11-30T05:13:30.739Z,30.70
2022-11-30T05:16:00.398Z,31.27
2022-11-30T05:18:31.628Z,30.50
2022-11-30T05:20:59.840Z,28.50
2022-11-30T05:23:28.104Z,28.77
2022-11-30T05:25:56.295Z,27.20
2022-11-30T05:28:24.519Z,27.90
2022-11-30T05:30:52.708Z,25.23
2022-11-30T05:33:22.527Z,26.10
2022-11-30T05:35:50.719Z,27.70
2022-11-30T05:38:19.218Z,27.87
2022-11-30T05:40:47.516Z,25.67
2022-11-30T05:43:15.753Z,27.73
2022-11-30T05:45:44.295Z,25.53
2022-11-30T05:48:12.509Z,27.80
2022-11-30T05:50:42.069Z,28.90
2022-11-30T05:53:11.346Z,35.43
2022-11-30T05:55:39.558Z,30.37
2022-11-30T05:58:07.864Z,31.97
2022-11-30T06:00:36.105Z,31.73
2022-11-30T06:03:04.548Z,30.70
2022-11-30T06:05:36.462Z,34.90
2022-11-30T06:08:06.429Z,33.07
2022-11-30T06:10:34.673Z,33.93
2022-11-30T06:13:08.004Z,33.60
2022-11-30T06:15:37.577Z,31.50
2022-11-30T06:18:06.723Z,33.53
2022-11-30T06:20:35.786Z,34.17
2022-11-30T06:23:06.617Z,34.07
2022-11-30T06:25:34.772Z,36.33
2022-11-30T06:28:03.209Z,34.67
2022-11-30T06:30:31.360Z,32.30
2022-11-30T06:32:59.571Z,32.90
2022-11-30T06:35:27.919Z,29.90
2022-11-30T06:37:56.179Z,29.90
2022-11-30T06:40:25.724Z,29.77
2022-11-30T06:42:54.418Z,29.90
2022-11-30T06:45:22.680Z,29.13
2022-11-30T06:47:50.859Z,29.90
2022-11-30T06:50:19.155Z,28.80
2022-11-30T06:52:47.387Z,28.83
2022-11-30T06:55:15.656Z,27.60
2022-11-30T06:57:45.490Z,26.73
2022-11-30T07:00:15.061Z,27.40
2022-11-30T07:02:43.406Z,26.80
2022-11-30T07:05:11.793Z,26.87
2022-11-30T07:07:41.172Z,24.67
2022-11-30T07:10:10.563Z,23.67
2022-11-30T07:12:38.807Z,23.03
2022-11-30T07:15:09.967Z,23.10
2022-11-30T07:17:38.259Z,23.87
2022-11-30T07:20:08.268Z,22.90
2022-11-30T07:22:36.466Z,23.60
2022-11-30T07:25:22.662Z,23.23
2022-11-30T07:27:50.926Z,24.47
2022-11-30T07:30:20.858Z,22.17
2022-11-30T07:32:48.993Z,23.30
2022-11-30T07:35:17.195Z,21.80
2022-11-30T07:37:45.502Z,22.70
2022-11-30T07:40:14.416Z,22.63
2022-11-30T07:42:42.747Z,22.03
2022-11-30T07:45:12.079Z,21.97
2022-11-30T07:47:42.814Z,23.60
2022-11-30T07:50:12.123Z,22.20
2022-11-30T07:52:40.287Z,24.03
2022-11-30T07:55:10.138Z,22.73
2022-11-30T07:57:38.383Z,21.20
2022-11-30T08:00:08.858Z,19.60
2022-11-30T08:02:37.252Z,19.43
2022-11-30T08:05:11.480Z,19.10
2022-11-30T08:07:39.804Z,17.50
2022-11-30T08:10:09.387Z,19.07
2022-11-30T08:12:37.597Z,19.63
2022-11-30T08:15:28.910Z,19.00
2022-11-30T08:17:56.013Z,21.37
2022-11-30T08:20:25.594Z,19.23
2022-11-30T08:22:53.951Z,20.70
2022-11-30T08:25:23.456Z,21.70
2022-11-30T08:27:51.730Z,21.30
2022-11-30T08:30:20.164Z,19.63
2022-11-30T08:32:48.808Z,22.47
2022-11-30T08:35:17.161Z,21.00
2022-11-30T08:37:46.749Z,26.00
2022-11-30T08:40:15.364Z,22.90
2022-11-30T08:42:43.557Z,22.60
2022-11-30T08:45:12.496Z,20.00
2022-11-30T08:47:40.769Z,20.13
2022-11-30T08:50:10.064Z,20.00
2022-11-30T08:52:38.230Z,21.47
2022-11-30T08:55:09.600Z,22.30
2022-11-30T08:57:37.791Z,22.20
2022-11-30T09:00:07.525Z,22.03
2022-11-30T09:02:35.761Z,22.30
2022-11-30T09:05:04.079Z,22.47
2022-11-30T09:07:32.397Z,22.67
2022-11-30T09:10:00.629Z,23.03
2022-11-30T09:12:30.207Z,22.40
2022-11-30T09:14:59.072Z,23.93
2022-11-30T09:17:27.534Z,22.50
2022-11-30T09:19:55.982Z,22.33
2022-11-30T09:22:24.348Z,21.47
2022-11-30T09:24:52.574Z,22.27
2022-11-30T09:27:21.263Z,21.30
2022-11-30T09:29:50.748Z,20.80
2022-11-30T09:32:18.906Z,22.50
2022-11-30T09:34:50.154Z,23.73
2022-11-30T09:37:18.995Z,22.30
2022-11-30T09:39:47.184Z,23.30
2022-11-30T09:42:44.820Z,21.20
2022-11-30T09:45:20.224Z,23.50
2022-11-30T09:48:22.287Z,25.43
2022-11-30T09:50:51.680Z,24.40
2022-11-30T09:53:29.435Z,23.27
2022-11-30T09:55:59.815Z,22.23
2022-11-30T09:58:38.165Z,23.57
2022-11-30T10:01:17.310Z,24.47
2022-11-30T10:03:45.753Z,24.80
2022-11-30T10:06:23.645Z,24.00
2022-11-30T10:09:03.474Z,24.33
2022-11-30T10:11:45.137Z,24.10
2022-11-30T10:14:45.856Z,24.20
2022-11-30T10:17:30.469Z,24.37
2022-11-30T10:20:17.108Z,24.33
2022-11-30T10:23:04.472Z,23.70
2022-11-30T10:25:44.562Z,26.10
2022-11-30T10:28:45.466Z,24.27
2022-11-30T10:31:10.316Z,25.73
2022-11-30T10:33:46.506Z,24.50
2022-11-30T10:36:21.690Z,23.20
2022-11-30T10:38:53.633Z,25.83
2022-11-30T10:41:25.832Z,25.27
2022-11-30T10:44:00.967Z,25.30
2022-11-30T10:46:32.021Z,26.30
2022-11-30T10:49:05.983Z,27.50
2022-11-30T10:51:36.765Z,26.23
2022-11-30T10:54:14.473Z,29.87
2022-11-30T10:56:42.844Z,28.70
2022-11-30T10:59:17.997Z,27.87
2022-11-30T11:01:46.415Z,29.27
2022-11-30T11:04:22.454Z,29.20
2022-11-30T11:06:53.644Z,30.10
2022-11-30T11:09:32.393Z,29.20
2022-11-30T11:12:02.080Z,30.73
2022-11-30T11:14:36.284Z,27.23
2022-11-30T11:17:08.062Z,31.17
2022-11-30T11:19:41.566Z,30.57
2022-11-30T11:22:18.423Z,31.43
2022-11-30T11:24:47.622Z,30.17
2022-11-30T11:27:28.072Z,32.00
2022-11-30T11:30:03.109Z,31.90
2022-11-30T11:32:32.013Z,30.93
2022-11-30T11:35:02.040Z,33.83
2022-11-30T11:37:33.274Z,31.20
2022-11-30T11:40:15.351Z,31.80
2022-11-30T11:42:48.188Z,31.40
2022-11-30T11:45:20.962Z,32.40
2022-11-30T11:47:59.643Z,31.40
2022-11-30T11:53:25.077Z,31.40
2022-11-30T11:55:58.403Z,33.87
2022-11-30T11:58:37.085Z,32.40
2022-11-30T12:01:38.505Z,32.50
2022-11-30T12:04:13.219Z,33.97
2022-11-30T12:06:45.589Z,33.47
2022-11-30T12:09:18.705Z,34.43
2022-11-30T12:11:48.681Z,32.60
2022-11-30T12:14:19.283Z,35.87
2022-11-30T12:17:02.426Z,33.00
2022-11-30T12:19:38.093Z,33.33
2022-11-30T12:22:20.862Z,34.97
2022-11-30T12:25:05.763Z,35.37
2022-11-30T12:27:46.868Z,35.77
2022-11-30T12:30:24.515Z,32.33
2022-11-30T12:33:16.380Z,33.37
2022-11-30T12:35:57.380Z,32.13
2022-11-30T12:38:41.706Z,33.57
2022-11-30T12:41:35.163Z,32.40
2022-11-30T12:44:28.526Z,33.17
2022-11-30T12:47:06.477Z,34.07
2022-11-30T12:49:53.326Z,33.53
2022-11-30T12:52:34.530Z,34.57
2022-11-30T12:55:15.401Z,35.10
2022-11-30T12:57:50.096Z,35.00
2022-11-30T13:00:22.150Z,32.53
2022-11-30T13:03:19.340Z,32.60
2022-11-30T13:05:52.473Z,33.17
2022-11-30T13:08:26.936Z,34.30
2022-11-30T13:11:00.301Z,34.50
2022-11-30T13:13:33.375Z,35.80
2022-11-30T13:16:07.029Z,37.87
2022-11-30T13:18:36.675Z,35.80
2022-11-30T13:21:10.358Z,36.70
2022-11-30T13:23:44.601Z,33.90
2022-11-30T13:26:24.888Z,34.90
2022-11-30T13:29:07.031Z,34.77
2022-11-30T13:31:39.727Z,35.60
2022-11-30T13:34:24.755Z,35.60
2022-11-30T13:37:01.636Z,35.00
2022-11-30T13:47:30.792Z,32.27
2022-11-30T13:50:21.430Z,32.73
2022-11-30T13:53:36.407Z,34.63
2022-11-30T14:01:49.809Z,29.67
2022-11-30T14:07:46.815Z,32.27
2022-11-30T14:10:29.380Z,32.77
2022-11-30T14:13:00.970Z,33.17
2022-11-30T14:15:51.596Z,33.20
2022-11-30T14:18:38.474Z,32.80
2022-11-30T14:21:25.128Z,32.67
2022-11-30T14:24:00.831Z,34.53
2022-11-30T14:26:32.927Z,32.87
2022-11-30T14:29:11.918Z,33.27
2022-11-30T14:31:49.613Z,34.10
2022-11-30T14:34:21.797Z,32.23
2022-11-30T14:36:53.788Z,32.70
2022-11-30T14:39:28.980Z,37.30
2022-11-30T14:41:58.439Z,33.97
2022-11-30T14:44:29.130Z,31.63
2022-11-30T14:46:59.427Z,31.63
2022-11-30T14:49:27.805Z,31.73
2022-11-30T14:52:01.820Z,31.33
2022-11-30T14:54:49.534Z,31.70
2022-11-30T14:57:25.842Z,30.57
2022-11-30T14:59:57.067Z,30.40
2022-11-30T15:02:33.618Z,30.30
2022-11-30T15:05:02.619Z,30.63
2022-11-30T15:07:32.114Z,31.00
2022-11-30T15:10:05.937Z,28.43
2022-11-30T15:12:35.395Z,29.73
2022-11-30T15:15:19.265Z,29.07
2022-11-30T15:17:59.266Z,31.47
2022-11-30T15:20:30.956Z,26.40
2022-11-30T15:23:01.113Z,27.80
2022-11-30T15:25:38.439Z,29.20
2022-11-30T15:28:07.891Z,28.27
2022-11-30T15:30:41.634Z,28.13
2022-11-30T15:33:19.245Z,30.00
2022-11-30T15:36:15.905Z,28.40
2022-11-30T15:38:39.689Z,27.43
2022-11-30T15:41:20.207Z,28.90
2022-11-30T15:43:53.428Z,28.37
2022-11-30T15:46:33.498Z,29.83
2022-11-30T15:49:24.417Z,29.07
2022-11-30T15:52:09.252Z,29.40
2022-11-30T15:54:56.589Z,29.60
2022-11-30T15:57:28.441Z,27.57
2022-11-30T16:00:20.408Z,26.97
2022-11-30T16:02:49.135Z,26.43
2022-11-30T16:05:25.998Z,26.13
2022-11-30T16:07:57.190Z,28.87
2022-11-30T16:10:29.800Z,29.20
2022-11-30T16:12:59.543Z,28.37
2022-11-30T16:15:29.604Z,29.07
2022-11-30T16:18:01.048Z,29.10
2022-11-30T16:20:30.766Z,28.70
2022-11-30T16:23:05.344Z,26.70
2022-11-30T16:25:35.405Z,27.13
2022-11-30T16:28:05.437Z,27.70
2022-11-30T16:30:34.902Z,28.50
2022-11-30T16:33:04.443Z,28.80
2022-11-30T16:35:38.424Z,27.80
2022-11-30T16:38:12.677Z,26.30
2022-11-30T16:40:40.953Z,25.77
2022-11-30T16:43:13.281Z,26.10
2022-11-30T16:45:43.841Z,26.50
2022-11-30T16:48:12.441Z,26.80
2022-11-30T16:50:42.089Z,28.63
2022-11-30T16:53:14.990Z,26.97
2022-11-30T16:55:45.697Z,26.17
2022-11-30T16:58:15.498Z,26.63
2022-11-30T17:00:44.969Z,26.90
2022-11-30T17:03:21.597Z,26.87
2022-11-30T17:05:52.361Z,25.67
2022-11-30T17:08:22.888Z,25.27
2022-11-30T17:10:52.977Z,25.87
2022-11-30T17:13:22.868Z,26.03
2022-11-30T17:15:51.583Z,24.20
2022-11-30T17:18:19.879Z,24.47
2022-11-30T17:20:48.653Z,23.57
2022-11-30T17:23:19.979Z,26.60
2022-11-30T17:25:49.383Z,25.30
2022-11-30T17:28:17.874Z,24.80
2022-11-30T17:30:48.795Z,23.03
2022-11-30T17:33:17.142Z,22.73
2022-11-30T17:35:46.423Z,22.87
2022-11-30T17:38:14.956Z,23.13
2022-11-30T17:40:45.100Z,22.00
2022-11-30T17:43:13.394Z,24.83
2022-11-30T17:45:49.260Z,22.87
2022-11-30T17:48:17.659Z,22.27
2022-11-30T17:50:46.240Z,22.93
2022-11-30T17:53:18.291Z,23.57
2022-11-30T17:55:47.523Z,21.63
2022-11-30T17:58:15.834Z,21.53
2022-11-30T18:00:44.193Z,20.90
2022-11-30T18:03:18.738Z,21.00
2022-11-30T18:05:50.007Z,22.10
2022-11-30T18:08:19.619Z,22.10
2022-11-30T18:10:55.889Z,24.43
2022-11-30T18:13:24.431Z,23.43
2022-11-30T18:15:53.823Z,23.53
2022-11-30T18:18:24.640Z,22.20
2022-11-30T18:20:52.971Z,24.80
2022-11-30T18:23:23.271Z,22.83
2022-11-30T18:25:51.558Z,21.73
2022-11-30T18:28:19.806Z,25.20
2022-11-30T18:30:53.737Z,24.63
2022-11-30T18:33:25.609Z,27.97
2022-11-30T18:35:58.976Z,22.60
2022-11-30T18:38:37.950Z,22.90
2022-11-30T18:41:07.869Z,23.53
2022-11-30T18:43:39.061Z,25.67
2022-11-30T18:46:08.917Z,24.87
2022-11-30T18:48:39.717Z,22.80
2022-11-30T18:51:12.961Z,23.30
2022-11-30T18:53:43.021Z,23.07
2022-11-30T18:56:15.918Z,22.70
2022-11-30T18:58:46.328Z,22.07
2022-11-30T19:01:16.471Z,22.10
2022-11-30T19:03:51.467Z,21.17
2022-11-30T19:06:21.367Z,21.60
2022-11-30T19:08:55.915Z,21.77
2022-11-30T19:11:24.536Z,20.60
2022-11-30T19:13:55.383Z,19.53
2022-11-30T19:16:24.486Z,17.47
2022-11-30T19:18:55.011Z,17.60
2022-11-30T19:21:24.667Z,17.27
2022-11-30T19:23:53.135Z,19.57
2022-11-30T19:26:22.450Z,17.60
2022-11-30T19:28:54.810Z,16.60
2022-11-30T19:31:24.091Z,17.07
2022-11-30T19:33:56.135Z,17.13
2022-11-30T19:36:27.462Z,16.43
2022-11-30T19:38:58.798Z,14.70
2022-11-30T19:41:27.909Z,15.03
2022-11-30T19:44:03.706Z,17.30
2022-11-30T19:46:34.503Z,16.10
2022-11-30T19:49:04.865Z,16.77
2022-11-30T19:51:33.293Z,18.83
2022-11-30T19:54:02.113Z,18.63
2022-11-30T19:56:32.183Z,17.97
2022-11-30T19:59:05.577Z,17.80
2022-11-30T20:01:35.538Z,16.87
2022-11-30T20:04:06.145Z,18.57
2022-11-30T20:06:37.624Z,17.50
2022-11-30T20:09:09.275Z,18.27
2022-11-30T20:11:40.107Z,21.10
2022-11-30T20:14:08.462Z,16.37
2022-11-30T20:16:37.907Z,17.20
2022-11-30T20:19:08.607Z,16.43
2022-11-30T20:21:37.980Z,17.90
2022-11-30T20:24:09.634Z,15.83
2022-11-30T20:26:40.204Z,16.50
2022-11-30T20:29:14.047Z,16.73
2022-11-30T20:31:45.785Z,15.77
2022-11-30T20:34:16.655Z,15.80
2022-11-30T20:36:45.308Z,16.17
2022-11-30T20:39:14.905Z,15.30
2022-11-30T20:41:50.273Z,17.70
2022-11-30T20:44:19.751Z,15.53
2022-11-30T20:46:48.118Z,16.30
2022-11-30T20:49:21.420Z,15.47
2022-11-30T20:51:50.163Z,14.83
2022-11-30T20:54:19.243Z,14.90
2022-11-30T20:56:51.185Z,14.20
2022-11-30T20:59:24.052Z,12.70
2022-11-30T21:01:52.651Z,13.90
2022-11-30T21:04:23.363Z,13.77
2022-11-30T21:06:52.035Z,15.00
2022-11-30T21:09:21.360Z,13.27
2022-11-30T21:11:50.176Z,13.20
2022-11-30T21:14:18.827Z,13.00
2022-11-30T21:16:47.605Z,13.30
2022-11-30T21:19:17.150Z,12.87
2022-11-30T21:21:49.204Z,13.60
2022-11-30T21:24:17.628Z,12.40
2022-11-30T21:26:46.022Z,13.00
2022-11-30T21:29:18.074Z,13.53
2022-11-30T21:31:46.922Z,12.90
2022-11-30T21:34:16.429Z,12.87
2022-11-30T21:36:48.874Z,11.97
2022-11-30T21:39:21.293Z,12.87
2022-11-30T21:41:49.683Z,12.27
2022-11-30T21:44:18.631Z,13.07
2022-11-30T21:46:48.218Z,12.20
2022-11-30T21:49:18.046Z,12.47
2022-11-30T21:51:48.621Z,12.70
2022-11-30T21:54:17.887Z,10.50
2022-11-30T21:56:46.271Z,12.10
2022-11-30T21:59:15.658Z,11.83
2022-11-30T22:01:44.762Z,11.50
2022-11-30T22:04:16.638Z,11.50
2022-11-30T22:06:49.659Z,11.30
2022-11-30T22:09:18.876Z,11.27
2022-11-30T22:11:48.770Z,11.60
2022-11-30T22:14:18.123Z,12.47
2022-11-30T22:16:48.627Z,13.53
2022-11-30T22:19:17.981Z,14.57
2022-11-30T22:21:50.450Z,14.60
2022-11-30T22:24:20.162Z,11.63
2022-11-30T22:26:49.842Z,11.53
2022-11-30T22:29:20.754Z,11.93
2022-11-30T22:31:52.691Z,11.70
2022-11-30T22:34:21.273Z,12.43
2022-11-30T22:36:51.140Z,12.03
2022-11-30T22:39:22.264Z,10.63
2022-11-30T22:41:55.677Z,11.73
2022-11-30T22:44:26.358Z,10.93
2022-11-30T22:46:56.168Z,10.80
2022-11-30T22:49:24.963Z,11.17
2022-11-30T22:51:55.077Z,11.87
2022-11-30T22:54:23.431Z,11.73
2022-11-30T22:56:52.047Z,12.37
2022-11-30T22:59:20.479Z,11.50
2022-11-30T23:01:51.539Z,12.77
2022-11-30T23:04:22.879Z,12.00
2022-11-30T23:06:51.714Z,10.73
2022-11-30T23:09:23.375Z,10.40
2022-11-30T23:11:52.378Z,10.80
2022-11-30T23:14:25.775Z,11.50
2022-11-30T23:16:54.453Z,11.70
2022-11-30T23:19:23.325Z,10.93
2022-11-30T23:21:52.011Z,10.20
2022-11-30T23:24:22.640Z,11.03
2022-11-30T23:26:51.532Z,12.70
2022-11-30T23:29:20.978Z,10.87
2022-11-30T23:31:50.474Z,9.83
2022-11-30T23:34:31.578Z,9.80
2022-11-30T23:37:31.615Z,10.07
2022-11-30T23:40:04.183Z,11.47
2022-11-30T23:42:32.961Z,10.30
2022-11-30T23:45:05.547Z,11.60
2022-11-30T23:47:34.037Z,11.40
2022-11-30T23:50:03.696Z,10.33
2022-11-30T23:52:33.135Z,10.77
2022-11-30T23:55:03.925Z,10.30
2022-11-30T23:57:33.248Z,10.90
